sensor_id;sensor_type;location;lat;lon;timestamp;P1;durP1;ratioP1;P2;durP2;ratioP2
23470;SDS011;11908;50.806;4.424;2024-03-17T00:00:30;10.50;;;5.70;;
23470;SDS011;11908;50.806;4.424;2024-03-17T00:02:56;10.07;;;5.90;;
23470;SDS011;11908;50.806;4.424;2024-03-17T00:05:22;9.48;;;5.45;;
23470;SDS011;11908;50.806;4.424;2024-03-17T00:07:48;7.35;;;5.50;;
23470;SDS011;11908;50.806;4.424;2024-03-17T00:10:14;8.65;;;5.38;;
23470;SDS011;11908;50.806;4.424;2024-03-17T00:12:40;8.95;;;5.90;;
23470;SDS011;11908;50.806;4.424;2024-03-17T00:15:06;8.52;;;5.50;;
23470;SDS011;11908;50.806;4.424;2024-03-17T00:17:33;10.93;;;6.15;;
23470;SDS011;11908;50.806;4.424;2024-03-17T00:20:00;10.05;;;5.13;;
23470;SDS011;11908;50.806;4.424;2024-03-17T00:22:29;8.20;;;5.72;;
23470;SDS011;11908;50.806;4.424;2024-03-17T00:24:55;10.15;;;5.53;;
23470;SDS011;11908;50.806;4.424;2024-03-17T00:27:21;10.43;;;5.47;;
23470;SDS011;11908;50.806;4.424;2024-03-17T00:29:47;10.43;;;5.40;;
23470;SDS011;11908;50.806;4.424;2024-03-17T00:32:13;16.13;;;5.07;;
23470;SDS011;11908;50.806;4.424;2024-03-17T00:34:39;6.80;;;5.15;;
23470;SDS011;11908;50.806;4.424;2024-03-17T00:37:05;9.35;;;4.97;;
23470;SDS011;11908;50.806;4.424;2024-03-17T00:39:30;8.20;;;5.28;;
23470;SDS011;11908;50.806;4.424;2024-03-17T00:41:57;8.48;;;5.47;;
23470;SDS011;11908;50.806;4.424;2024-03-17T00:44:23;9.85;;;5.65;;
23470;SDS011;11908;50.806;4.424;2024-03-17T00:46:48;9.10;;;5.32;;
23470;SDS011;11908;50.806;4.424;2024-03-17T00:49:14;9.52;;;5.00;;
23470;SDS011;11908;50.806;4.424;2024-03-17T00:51:39;6.80;;;4.80;;
23470;SDS011;11908;50.806;4.424;2024-03-17T00:54:05;7.53;;;5.07;;
23470;SDS011;11908;50.806;4.424;2024-03-17T00:56:31;10.02;;;5.90;;
23470;SDS011;11908;50.806;4.424;2024-03-17T00:58:56;7.35;;;5.30;;
23470;SDS011;11908;50.806;4.424;2024-03-17T01:01:22;9.43;;;5.38;;
23470;SDS011;11908;50.806;4.424;2024-03-17T01:03:48;10.65;;;5.95;;
23470;SDS011;11908;50.806;4.424;2024-03-17T01:06:14;7.47;;;5.10;;
23470;SDS011;11908;50.806;4.424;2024-03-17T01:08:39;11.38;;;5.32;;
23470;SDS011;11908;50.806;4.424;2024-03-17T01:11:05;7.07;;;5.30;;
23470;SDS011;11908;50.806;4.424;2024-03-17T01:13:33;7.15;;;4.80;;
23470;SDS011;11908;50.806;4.424;2024-03-17T01:16:00;9.07;;;4.65;;
23470;SDS011;11908;50.806;4.424;2024-03-17T01:18:26;8.77;;;4.90;;
23470;SDS011;11908;50.806;4.424;2024-03-17T01:20:51;9.27;;;5.38;;
23470;SDS011;11908;50.806;4.424;2024-03-17T01:23:17;7.65;;;5.47;;
23470;SDS011;11908;50.806;4.424;2024-03-17T01:25:43;8.98;;;5.05;;
23470;SDS011;11908;50.806;4.424;2024-03-17T01:28:08;10.35;;;5.45;;
23470;SDS011;11908;50.806;4.424;2024-03-17T01:30:34;8.00;;;4.95;;
23470;SDS011;11908;50.806;4.424;2024-03-17T01:33:00;7.50;;;5.15;;
23470;SDS011;11908;50.806;4.424;2024-03-17T01:35:26;11.45;;;5.50;;
23470;SDS011;11908;50.806;4.424;2024-03-17T01:37:52;9.85;;;5.25;;
23470;SDS011;11908;50.806;4.424;2024-03-17T01:40:18;10.52;;;5.45;;
23470;SDS011;11908;50.806;4.424;2024-03-17T01:42:43;8.77;;;5.07;;
23470;SDS011;11908;50.806;4.424;2024-03-17T01:47:41;10.77;;;5.25;;
23470;SDS011;11908;50.806;4.424;2024-03-17T01:50:06;9.23;;;4.93;;
23470;SDS011;11908;50.806;4.424;2024-03-17T01:52:33;13.10;;;4.95;;
23470;SDS011;11908;50.806;4.424;2024-03-17T01:54:59;7.63;;;4.95;;
23470;SDS011;11908;50.806;4.424;2024-03-17T01:57:25;7.00;;;5.10;;
23470;SDS011;11908;50.806;4.424;2024-03-17T01:59:51;6.55;;;4.60;;
23470;SDS011;11908;50.806;4.424;2024-03-17T02:02:17;6.80;;;4.90;;
23470;SDS011;11908;50.806;4.424;2024-03-17T02:04:43;8.70;;;5.10;;
23470;SDS011;11908;50.806;4.424;2024-03-17T02:07:08;7.97;;;5.22;;
23470;SDS011;11908;50.806;4.424;2024-03-17T02:09:34;7.90;;;4.95;;
23470;SDS011;11908;50.806;4.424;2024-03-17T02:12:00;6.93;;;4.28;;
23470;SDS011;11908;50.806;4.424;2024-03-17T02:14:26;9.63;;;5.00;;
23470;SDS011;11908;50.806;4.424;2024-03-17T02:16:51;6.63;;;4.40;;
23470;SDS011;11908;50.806;4.424;2024-03-17T02:19:17;7.28;;;4.35;;
23470;SDS011;11908;50.806;4.424;2024-03-17T02:21:43;7.10;;;4.97;;
23470;SDS011;11908;50.806;4.424;2024-03-17T02:24:08;9.18;;;4.70;;
23470;SDS011;11908;50.806;4.424;2024-03-17T02:26:34;8.13;;;4.38;;
23470;SDS011;11908;50.806;4.424;2024-03-17T02:29:00;6.60;;;4.50;;
23470;SDS011;11908;50.806;4.424;2024-03-17T02:31:26;8.77;;;5.00;;
23470;SDS011;11908;50.806;4.424;2024-03-17T02:33:51;9.00;;;4.65;;
23470;SDS011;11908;50.806;4.424;2024-03-17T02:36:17;6.68;;;4.50;;
23470;SDS011;11908;50.806;4.424;2024-03-17T02:38:43;8.65;;;4.50;;
23470;SDS011;11908;50.806;4.424;2024-03-17T02:41:27;9.77;;;4.68;;
23470;SDS011;11908;50.806;4.424;2024-03-17T02:43:53;10.80;;;4.25;;
23470;SDS011;11908;50.806;4.424;2024-03-17T02:46:19;8.27;;;5.07;;
23470;SDS011;11908;50.806;4.424;2024-03-17T02:48:46;9.70;;;4.53;;
23470;SDS011;11908;50.806;4.424;2024-03-17T02:51:14;5.72;;;4.10;;
23470;SDS011;11908;50.806;4.424;2024-03-17T02:53:44;8.48;;;4.45;;
23470;SDS011;11908;50.806;4.424;2024-03-17T02:56:10;7.80;;;4.53;;
23470;SDS011;11908;50.806;4.424;2024-03-17T02:58:36;8.40;;;4.35;;
23470;SDS011;11908;50.806;4.424;2024-03-17T03:01:04;7.85;;;4.30;;
23470;SDS011;11908;50.806;4.424;2024-03-17T03:03:33;10.02;;;4.68;;
23470;SDS011;11908;50.806;4.424;2024-03-17T03:05:59;5.85;;;4.43;;
23470;SDS011;11908;50.806;4.424;2024-03-17T03:08:34;7.90;;;4.43;;
23470;SDS011;11908;50.806;4.424;2024-03-17T03:11:05;7.88;;;4.78;;
23470;SDS011;11908;50.806;4.424;2024-03-17T03:13:35;12.25;;;5.30;;
23470;SDS011;11908;50.806;4.424;2024-03-17T03:16:02;10.15;;;4.88;;
23470;SDS011;11908;50.806;4.424;2024-03-17T03:18:28;7.95;;;4.80;;
23470;SDS011;11908;50.806;4.424;2024-03-17T03:20:54;8.65;;;5.05;;
23470;SDS011;11908;50.806;4.424;2024-03-17T03:23:20;7.38;;;4.70;;
23470;SDS011;11908;50.806;4.424;2024-03-17T03:25:46;7.50;;;4.68;;
23470;SDS011;11908;50.806;4.424;2024-03-17T03:28:12;7.15;;;4.43;;
23470;SDS011;11908;50.806;4.424;2024-03-17T03:30:38;6.53;;;4.00;;
23470;SDS011;11908;50.806;4.424;2024-03-17T03:33:04;9.38;;;4.55;;
23470;SDS011;11908;50.806;4.424;2024-03-17T03:35:31;9.55;;;4.45;;
23470;SDS011;11908;50.806;4.424;2024-03-17T03:37:56;7.85;;;5.15;;
23470;SDS011;11908;50.806;4.424;2024-03-17T03:40:22;9.82;;;4.78;;
23470;SDS011;11908;50.806;4.424;2024-03-17T03:42:50;8.43;;;4.80;;
23470;SDS011;11908;50.806;4.424;2024-03-17T03:45:15;13.07;;;5.50;;
23470;SDS011;11908;50.806;4.424;2024-03-17T03:47:41;7.55;;;4.57;;
23470;SDS011;11908;50.806;4.424;2024-03-17T03:50:08;9.85;;;5.15;;
23470;SDS011;11908;50.806;4.424;2024-03-17T03:52:35;9.40;;;5.00;;
23470;SDS011;11908;50.806;4.424;2024-03-17T03:55:01;10.90;;;4.75;;
23470;SDS011;11908;50.806;4.424;2024-03-17T03:57:27;12.05;;;4.88;;
23470;SDS011;11908;50.806;4.424;2024-03-17T03:59:54;9.60;;;5.40;;
23470;SDS011;11908;50.806;4.424;2024-03-17T04:02:20;9.65;;;5.53;;
23470;SDS011;11908;50.806;4.424;2024-03-17T04:04:46;10.20;;;5.70;;
23470;SDS011;11908;50.806;4.424;2024-03-17T04:07:13;9.77;;;5.38;;
23470;SDS011;11908;50.806;4.424;2024-03-17T04:09:39;10.55;;;5.70;;
23470;SDS011;11908;50.806;4.424;2024-03-17T04:12:04;10.32;;;5.45;;
23470;SDS011;11908;50.806;4.424;2024-03-17T04:14:30;10.63;;;5.72;;
23470;SDS011;11908;50.806;4.424;2024-03-17T04:16:56;9.20;;;5.78;;
23470;SDS011;11908;50.806;4.424;2024-03-17T04:19:23;9.13;;;5.68;;
23470;SDS011;11908;50.806;4.424;2024-03-17T04:21:48;13.55;;;6.35;;
23470;SDS011;11908;50.806;4.424;2024-03-17T04:24:14;9.10;;;6.10;;
23470;SDS011;11908;50.806;4.424;2024-03-17T04:26:40;11.35;;;5.95;;
23470;SDS011;11908;50.806;4.424;2024-03-17T04:29:06;11.38;;;6.22;;
23470;SDS011;11908;50.806;4.424;2024-03-17T04:31:31;12.13;;;6.05;;
23470;SDS011;11908;50.806;4.424;2024-03-17T04:33:58;11.95;;;6.45;;
23470;SDS011;11908;50.806;4.424;2024-03-17T04:36:23;9.98;;;5.97;;
23470;SDS011;11908;50.806;4.424;2024-03-17T04:38:49;11.13;;;6.10;;
23470;SDS011;11908;50.806;4.424;2024-03-17T04:41:16;15.63;;;6.22;;
23470;SDS011;11908;50.806;4.424;2024-03-17T04:43:42;15.50;;;7.75;;
23470;SDS011;11908;50.806;4.424;2024-03-17T04:46:08;13.82;;;6.90;;
23470;SDS011;11908;50.806;4.424;2024-03-17T04:48:36;10.27;;;6.15;;
23470;SDS011;11908;50.806;4.424;2024-03-17T04:51:03;8.98;;;5.70;;
23470;SDS011;11908;50.806;4.424;2024-03-17T04:53:29;12.40;;;6.43;;
23470;SDS011;11908;50.806;4.424;2024-03-17T04:56:01;8.90;;;5.90;;
23470;SDS011;11908;50.806;4.424;2024-03-17T04:58:29;10.45;;;6.20;;
23470;SDS011;11908;50.806;4.424;2024-03-17T05:00:55;9.73;;;6.30;;
23470;SDS011;11908;50.806;4.424;2024-03-17T05:03:22;11.60;;;6.20;;
23470;SDS011;11908;50.806;4.424;2024-03-17T05:05:47;9.48;;;6.13;;
23470;SDS011;11908;50.806;4.424;2024-03-17T05:08:13;9.98;;;6.43;;
23470;SDS011;11908;50.806;4.424;2024-03-17T05:10:38;11.35;;;6.15;;
23470;SDS011;11908;50.806;4.424;2024-03-17T05:13:04;11.88;;;6.53;;
23470;SDS011;11908;50.806;4.424;2024-03-17T05:15:30;11.10;;;6.30;;
23470;SDS011;11908;50.806;4.424;2024-03-17T05:17:56;12.88;;;6.30;;
23470;SDS011;11908;50.806;4.424;2024-03-17T05:20:21;9.30;;;5.60;;
23470;SDS011;11908;50.806;4.424;2024-03-17T05:22:48;10.07;;;6.03;;
23470;SDS011;11908;50.806;4.424;2024-03-17T05:25:14;12.15;;;5.68;;
23470;SDS011;11908;50.806;4.424;2024-03-17T05:27:40;9.77;;;5.65;;
23470;SDS011;11908;50.806;4.424;2024-03-17T05:30:06;8.45;;;5.88;;
23470;SDS011;11908;50.806;4.424;2024-03-17T05:32:33;10.48;;;5.40;;
23470;SDS011;11908;50.806;4.424;2024-03-17T05:34:59;7.43;;;5.32;;
23470;SDS011;11908;50.806;4.424;2024-03-17T05:37:25;11.10;;;5.45;;
23470;SDS011;11908;50.806;4.424;2024-03-17T05:39:52;10.63;;;5.82;;
23470;SDS011;11908;50.806;4.424;2024-03-17T05:42:19;7.68;;;5.22;;
23470;SDS011;11908;50.806;4.424;2024-03-17T05:44:44;11.20;;;6.15;;
23470;SDS011;11908;50.806;4.424;2024-03-17T05:47:18;10.60;;;5.10;;
23470;SDS011;11908;50.806;4.424;2024-03-17T05:49:44;8.48;;;5.43;;
23470;SDS011;11908;50.806;4.424;2024-03-17T05:52:10;9.80;;;5.90;;
23470;SDS011;11908;50.806;4.424;2024-03-17T05:54:36;10.30;;;6.15;;
23470;SDS011;11908;50.806;4.424;2024-03-17T05:57:02;9.98;;;5.35;;
23470;SDS011;11908;50.806;4.424;2024-03-17T05:59:29;10.02;;;6.00;;
23470;SDS011;11908;50.806;4.424;2024-03-17T06:01:58;9.57;;;5.30;;
23470;SDS011;11908;50.806;4.424;2024-03-17T06:04:24;12.10;;;6.13;;
23470;SDS011;11908;50.806;4.424;2024-03-17T06:06:49;13.43;;;6.25;;
23470;SDS011;11908;50.806;4.424;2024-03-17T06:09:15;12.85;;;6.15;;
23470;SDS011;11908;50.806;4.424;2024-03-17T06:11:44;12.32;;;5.28;;
23470;SDS011;11908;50.806;4.424;2024-03-17T06:14:11;9.45;;;5.45;;
23470;SDS011;11908;50.806;4.424;2024-03-17T06:16:38;9.05;;;5.63;;
23470;SDS011;11908;50.806;4.424;2024-03-17T06:19:04;10.98;;;5.72;;
23470;SDS011;11908;50.806;4.424;2024-03-17T06:21:30;11.07;;;5.25;;
23470;SDS011;11908;50.806;4.424;2024-03-17T06:23:56;10.00;;;5.78;;
23470;SDS011;11908;50.806;4.424;2024-03-17T06:26:22;11.85;;;6.13;;
23470;SDS011;11908;50.806;4.424;2024-03-17T06:28:48;10.18;;;5.93;;
23470;SDS011;11908;50.806;4.424;2024-03-17T06:31:14;11.60;;;5.75;;
23470;SDS011;11908;50.806;4.424;2024-03-17T06:33:40;9.45;;;5.70;;
23470;SDS011;11908;50.806;4.424;2024-03-17T06:36:06;10.05;;;5.15;;
23470;SDS011;11908;50.806;4.424;2024-03-17T06:38:32;10.80;;;6.03;;
23470;SDS011;11908;50.806;4.424;2024-03-17T06:40:58;10.77;;;5.35;;
23470;SDS011;11908;50.806;4.424;2024-03-17T06:43:24;11.07;;;5.70;;
23470;SDS011;11908;50.806;4.424;2024-03-17T06:45:59;10.57;;;5.20;;
23470;SDS011;11908;50.806;4.424;2024-03-17T06:48:25;7.97;;;5.45;;
23470;SDS011;11908;50.806;4.424;2024-03-17T06:50:54;10.65;;;5.72;;
23470;SDS011;11908;50.806;4.424;2024-03-17T06:53:20;7.93;;;5.13;;
23470;SDS011;11908;50.806;4.424;2024-03-17T06:55:56;10.73;;;5.53;;
23470;SDS011;11908;50.806;4.424;2024-03-17T06:58:23;6.90;;;5.40;;
23470;SDS011;11908;50.806;4.424;2024-03-17T07:00:55;8.88;;;5.60;;
23470;SDS011;11908;50.806;4.424;2024-03-17T07:03:25;8.48;;;4.80;;
23470;SDS011;11908;50.806;4.424;2024-03-17T07:05:52;9.65;;;5.40;;
23470;SDS011;11908;50.806;4.424;2024-03-17T07:08:19;10.57;;;4.60;;
23470;SDS011;11908;50.806;4.424;2024-03-17T07:11:00;9.57;;;4.85;;
23470;SDS011;11908;50.806;4.424;2024-03-17T07:13:28;8.48;;;4.78;;
23470;SDS011;11908;50.806;4.424;2024-03-17T07:15:55;8.10;;;4.47;;
23470;SDS011;11908;50.806;4.424;2024-03-17T07:18:20;7.55;;;4.57;;
23470;SDS011;11908;50.806;4.424;2024-03-17T07:20:46;16.17;;;5.85;;
23470;SDS011;11908;50.806;4.424;2024-03-17T07:23:14;6.30;;;4.47;;
23470;SDS011;11908;50.806;4.424;2024-03-17T07:25:41;8.88;;;4.25;;
23470;SDS011;11908;50.806;4.424;2024-03-17T07:28:07;11.82;;;4.70;;
23470;SDS011;11908;50.806;4.424;2024-03-17T07:30:34;6.63;;;4.30;;
23470;SDS011;11908;50.806;4.424;2024-03-17T07:33:00;5.53;;;4.07;;
23470;SDS011;11908;50.806;4.424;2024-03-17T07:35:26;6.20;;;3.55;;
23470;SDS011;11908;50.806;4.424;2024-03-17T07:37:51;7.30;;;4.15;;
23470;SDS011;11908;50.806;4.424;2024-03-17T07:40:17;5.82;;;3.53;;
23470;SDS011;11908;50.806;4.424;2024-03-17T07:42:43;9.32;;;3.78;;
23470;SDS011;11908;50.806;4.424;2024-03-17T07:45:10;6.72;;;4.18;;
23470;SDS011;11908;50.806;4.424;2024-03-17T07:47:36;7.72;;;4.15;;
23470;SDS011;11908;50.806;4.424;2024-03-17T07:50:02;7.80;;;3.97;;
23470;SDS011;11908;50.806;4.424;2024-03-17T07:52:30;10.40;;;3.70;;
23470;SDS011;11908;50.806;4.424;2024-03-17T07:54:56;10.80;;;4.00;;
23470;SDS011;11908;50.806;4.424;2024-03-17T07:57:22;10.23;;;3.50;;
23470;SDS011;11908;50.806;4.424;2024-03-17T07:59:51;5.32;;;3.20;;
23470;SDS011;11908;50.806;4.424;2024-03-17T08:02:17;4.82;;;3.20;;
23470;SDS011;11908;50.806;4.424;2024-03-17T08:04:43;5.90;;;3.28;;
23470;SDS011;11908;50.806;4.424;2024-03-17T08:07:12;7.45;;;3.42;;
23470;SDS011;11908;50.806;4.424;2024-03-17T08:09:37;7.72;;;3.47;;
23470;SDS011;11908;50.806;4.424;2024-03-17T08:12:03;8.35;;;3.17;;
23470;SDS011;11908;50.806;4.424;2024-03-17T08:14:29;6.07;;;3.20;;
23470;SDS011;11908;50.806;4.424;2024-03-17T08:16:55;11.35;;;4.47;;
23470;SDS011;11908;50.806;4.424;2024-03-17T08:19:21;5.88;;;3.25;;
23470;SDS011;11908;50.806;4.424;2024-03-17T08:21:47;9.18;;;3.35;;
23470;SDS011;11908;50.806;4.424;2024-03-17T08:24:12;7.05;;;3.22;;
23470;SDS011;11908;50.806;4.424;2024-03-17T08:26:38;4.53;;;3.08;;
23470;SDS011;11908;50.806;4.424;2024-03-17T08:29:10;7.38;;;3.53;;
23470;SDS011;11908;50.806;4.424;2024-03-17T08:31:36;6.85;;;3.50;;
23470;SDS011;11908;50.806;4.424;2024-03-17T08:34:02;6.53;;;3.58;;
23470;SDS011;11908;50.806;4.424;2024-03-17T08:36:28;6.20;;;3.03;;
23470;SDS011;11908;50.806;4.424;2024-03-17T08:38:53;6.22;;;3.90;;
23470;SDS011;11908;50.806;4.424;2024-03-17T08:41:20;6.53;;;3.22;;
23470;SDS011;11908;50.806;4.424;2024-03-17T08:43:45;6.07;;;3.40;;
23470;SDS011;11908;50.806;4.424;2024-03-17T08:46:12;6.93;;;3.58;;
23470;SDS011;11908;50.806;4.424;2024-03-17T08:48:39;6.00;;;2.97;;
23470;SDS011;11908;50.806;4.424;2024-03-17T08:51:07;5.57;;;3.38;;
23470;SDS011;11908;50.806;4.424;2024-03-17T08:53:33;4.90;;;3.47;;
23470;SDS011;11908;50.806;4.424;2024-03-17T08:55:59;11.02;;;3.80;;
23470;SDS011;11908;50.806;4.424;2024-03-17T08:58:25;5.68;;;3.42;;
23470;SDS011;11908;50.806;4.424;2024-03-17T09:00:51;6.97;;;3.13;;
23470;SDS011;11908;50.806;4.424;2024-03-17T09:03:17;7.30;;;3.70;;
23470;SDS011;11908;50.806;4.424;2024-03-17T09:05:45;7.68;;;3.40;;
23470;SDS011;11908;50.806;4.424;2024-03-17T09:08:17;6.22;;;3.10;;
23470;SDS011;11908;50.806;4.424;2024-03-17T09:10:47;5.97;;;3.60;;
23470;SDS011;11908;50.806;4.424;2024-03-17T09:13:15;6.95;;;3.55;;
23470;SDS011;11908;50.806;4.424;2024-03-17T09:15:52;6.13;;;3.53;;
23470;SDS011;11908;50.806;4.424;2024-03-17T09:18:24;5.70;;;2.92;;
23470;SDS011;11908;50.806;4.424;2024-03-17T09:20:58;6.85;;;3.10;;
23470;SDS011;11908;50.806;4.424;2024-03-17T09:25:59;6.70;;;3.45;;
23470;SDS011;11908;50.806;4.424;2024-03-17T09:28:27;6.88;;;3.33;;
23470;SDS011;11908;50.806;4.424;2024-03-17T09:30:54;4.30;;;3.15;;
23470;SDS011;11908;50.806;4.424;2024-03-17T09:33:24;6.13;;;3.53;;
23470;SDS011;11908;50.806;4.424;2024-03-17T09:35:58;6.30;;;3.25;;
23470;SDS011;11908;50.806;4.424;2024-03-17T09:38:25;5.13;;;3.17;;
23470;SDS011;11908;50.806;4.424;2024-03-17T09:40:51;4.47;;;2.67;;
23470;SDS011;11908;50.806;4.424;2024-03-17T09:43:20;9.02;;;4.03;;
23470;SDS011;11908;50.806;4.424;2024-03-17T09:45:47;4.20;;;2.60;;
23470;SDS011;11908;50.806;4.424;2024-03-17T09:48:14;8.52;;;3.05;;
23470;SDS011;11908;50.806;4.424;2024-03-17T09:50:44;4.78;;;3.08;;
23470;SDS011;11908;50.806;4.424;2024-03-17T09:53:17;8.20;;;3.47;;
23470;SDS011;11908;50.806;4.424;2024-03-17T09:55:58;3.30;;;2.42;;
23470;SDS011;11908;50.806;4.424;2024-03-17T09:58:28;5.15;;;3.05;;
23470;SDS011;11908;50.806;4.424;2024-03-17T10:00:53;5.68;;;3.10;;
23470;SDS011;11908;50.806;4.424;2024-03-17T10:06:05;5.95;;;3.08;;
23470;SDS011;11908;50.806;4.424;2024-03-17T10:08:31;5.43;;;2.83;;
23470;SDS011;11908;50.806;4.424;2024-03-17T10:10:59;5.82;;;2.83;;
23470;SDS011;11908;50.806;4.424;2024-03-17T10:13:25;6.43;;;3.00;;
23470;SDS011;11908;50.806;4.424;2024-03-17T10:15:50;10.57;;;3.10;;
23470;SDS011;11908;50.806;4.424;2024-03-17T10:18:25;4.97;;;2.80;;
23470;SDS011;11908;50.806;4.424;2024-03-17T10:20:51;8.05;;;3.28;;
23470;SDS011;11908;50.806;4.424;2024-03-17T10:23:21;6.72;;;3.42;;
23470;SDS011;11908;50.806;4.424;2024-03-17T10:25:48;5.07;;;2.90;;
23470;SDS011;11908;50.806;4.424;2024-03-17T10:28:14;3.85;;;2.88;;
23470;SDS011;11908;50.806;4.424;2024-03-17T10:30:41;6.25;;;3.05;;
23470;SDS011;11908;50.806;4.424;2024-03-17T10:33:22;7.75;;;2.35;;
23470;SDS011;11908;50.806;4.424;2024-03-17T10:35:59;6.07;;;2.55;;
23470;SDS011;11908;50.806;4.424;2024-03-17T10:40:52;6.05;;;3.15;;
23470;SDS011;11908;50.806;4.424;2024-03-17T10:43:18;6.10;;;2.75;;
23470;SDS011;11908;50.806;4.424;2024-03-17T10:45:49;6.63;;;2.70;;
23470;SDS011;11908;50.806;4.424;2024-03-17T10:48:16;3.60;;;2.35;;
23470;SDS011;11908;50.806;4.424;2024-03-17T10:50:46;7.53;;;2.30;;
23470;SDS011;11908;50.806;4.424;2024-03-17T10:53:14;8.60;;;2.50;;
23470;SDS011;11908;50.806;4.424;2024-03-17T10:55:51;7.95;;;2.40;;
23470;SDS011;11908;50.806;4.424;2024-03-17T10:58:27;6.63;;;2.50;;
23470;SDS011;11908;50.806;4.424;2024-03-17T11:01:11;7.60;;;2.50;;
23470;SDS011;11908;50.806;4.424;2024-03-17T11:03:39;7.80;;;3.53;;
23470;SDS011;11908;50.806;4.424;2024-03-17T11:06:05;5.00;;;2.60;;
23470;SDS011;11908;50.806;4.424;2024-03-17T11:08:33;5.93;;;2.70;;
23470;SDS011;11908;50.806;4.424;2024-03-17T11:10:59;4.60;;;2.30;;
23470;SDS011;11908;50.806;4.424;2024-03-17T11:13:26;5.07;;;2.38;;
23470;SDS011;11908;50.806;4.424;2024-03-17T11:15:56;5.80;;;2.50;;
23470;SDS011;11908;50.806;4.424;2024-03-17T11:21:02;10.65;;;2.35;;
23470;SDS011;11908;50.806;4.424;2024-03-17T11:23:57;4.85;;;2.20;;
23470;SDS011;11908;50.806;4.424;2024-03-17T11:26:28;5.93;;;2.10;;
23470;SDS011;11908;50.806;4.424;2024-03-17T11:28:56;5.32;;;2.05;;
23470;SDS011;11908;50.806;4.424;2024-03-17T11:31:45;6.90;;;2.33;;
23470;SDS011;11908;50.806;4.424;2024-03-17T11:37:00;5.13;;;1.63;;
23470;SDS011;11908;50.806;4.424;2024-03-17T11:42:20;5.10;;;1.63;;
23470;SDS011;11908;50.806;4.424;2024-03-17T11:45:04;5.55;;;2.42;;
23470;SDS011;11908;50.806;4.424;2024-03-17T11:47:35;4.70;;;1.80;;
23470;SDS011;11908;50.806;4.424;2024-03-17T11:50:04;4.30;;;1.80;;
23470;SDS011;11908;50.806;4.424;2024-03-17T11:52:32;5.68;;;1.80;;
23470;SDS011;11908;50.806;4.424;2024-03-17T11:54:57;7.45;;;1.75;;
23470;SDS011;11908;50.806;4.424;2024-03-17T11:57:24;4.07;;;1.60;;
23470;SDS011;11908;50.806;4.424;2024-03-17T11:59:51;6.20;;;1.67;;
23470;SDS011;11908;50.806;4.424;2024-03-17T12:02:21;3.17;;;1.30;;
23470;SDS011;11908;50.806;4.424;2024-03-17T12:05:00;6.65;;;2.40;;
23470;SDS011;11908;50.806;4.424;2024-03-17T12:07:26;7.03;;;1.58;;
23470;SDS011;11908;50.806;4.424;2024-03-17T12:09:56;5.60;;;1.58;;
23470;SDS011;11908;50.806;4.424;2024-03-17T12:12:26;7.18;;;1.50;;
23470;SDS011;11908;50.806;4.424;2024-03-17T12:15:02;3.95;;;1.58;;
23470;SDS011;11908;50.806;4.424;2024-03-17T12:17:30;6.13;;;1.45;;
23470;SDS011;11908;50.806;4.424;2024-03-17T12:19:56;4.85;;;1.40;;
23470;SDS011;11908;50.806;4.424;2024-03-17T12:22:23;4.32;;;1.20;;
23470;SDS011;11908;50.806;4.424;2024-03-17T12:24:52;7.03;;;1.60;;
23470;SDS011;11908;50.806;4.424;2024-03-17T12:27:20;4.25;;;1.40;;
23470;SDS011;11908;50.806;4.424;2024-03-17T12:29:50;5.05;;;1.40;;
23470;SDS011;11908;50.806;4.424;2024-03-17T12:32:20;5.63;;;1.30;;
23470;SDS011;11908;50.806;4.424;2024-03-17T12:34:50;3.70;;;1.20;;
23470;SDS011;11908;50.806;4.424;2024-03-17T12:37:25;2.72;;;1.05;;
23470;SDS011;11908;50.806;4.424;2024-03-17T12:39:57;5.72;;;1.40;;
23470;SDS011;11908;50.806;4.424;2024-03-17T12:42:25;5.07;;;1.30;;
23470;SDS011;11908;50.806;4.424;2024-03-17T12:44:55;5.53;;;1.67;;
23470;SDS011;11908;50.806;4.424;2024-03-17T12:47:23;6.90;;;1.33;;
23470;SDS011;11908;50.806;4.424;2024-03-17T12:49:56;5.85;;;1.40;;
23470;SDS011;11908;50.806;4.424;2024-03-17T12:52:26;4.45;;;1.23;;
23470;SDS011;11908;50.806;4.424;2024-03-17T12:55:03;3.53;;;1.10;;
23470;SDS011;11908;50.806;4.424;2024-03-17T12:57:52;3.65;;;1.63;;
23470;SDS011;11908;50.806;4.424;2024-03-17T13:01:06;4.95;;;1.38;;
23470;SDS011;11908;50.806;4.424;2024-03-17T13:03:32;5.70;;;1.33;;
23470;SDS011;11908;50.806;4.424;2024-03-17T13:05:59;3.42;;;1.17;;
23470;SDS011;11908;50.806;4.424;2024-03-17T13:08:27;5.10;;;1.60;;
23470;SDS011;11908;50.806;4.424;2024-03-17T13:10:53;6.03;;;1.42;;
23470;SDS011;11908;50.806;4.424;2024-03-17T13:13:19;5.13;;;1.30;;
23470;SDS011;11908;50.806;4.424;2024-03-17T13:15:45;4.30;;;1.30;;
23470;SDS011;11908;50.806;4.424;2024-03-17T13:18:15;4.43;;;1.05;;
23470;SDS011;11908;50.806;4.424;2024-03-17T13:20:44;4.20;;;1.17;;
23470;SDS011;11908;50.806;4.424;2024-03-17T13:23:10;8.82;;;1.48;;
23470;SDS011;11908;50.806;4.424;2024-03-17T13:25:36;4.82;;;1.33;;
23470;SDS011;11908;50.806;4.424;2024-03-17T13:28:03;4.72;;;1.73;;
23470;SDS011;11908;50.806;4.424;2024-03-17T13:30:29;6.38;;;1.17;;
23470;SDS011;11908;50.806;4.424;2024-03-17T13:32:56;6.53;;;1.67;;
23470;SDS011;11908;50.806;4.424;2024-03-17T13:35:26;6.57;;;1.50;;
23470;SDS011;11908;50.806;4.424;2024-03-17T13:37:56;3.55;;;1.42;;
23470;SDS011;11908;50.806;4.424;2024-03-17T13:40:27;6.57;;;1.60;;
23470;SDS011;11908;50.806;4.424;2024-03-17T13:42:54;4.25;;;1.60;;
23470;SDS011;11908;50.806;4.424;2024-03-17T13:45:21;5.95;;;1.50;;
23470;SDS011;11908;50.806;4.424;2024-03-17T13:47:53;6.30;;;1.30;;
23470;SDS011;11908;50.806;4.424;2024-03-17T13:50:21;4.32;;;1.45;;
23470;SDS011;11908;50.806;4.424;2024-03-17T13:52:47;6.60;;;1.30;;
23470;SDS011;11908;50.806;4.424;2024-03-17T13:55:17;7.82;;;1.90;;
23470;SDS011;11908;50.806;4.424;2024-03-17T13:57:48;4.68;;;1.42;;
23470;SDS011;11908;50.806;4.424;2024-03-17T14:00:25;7.07;;;1.45;;
23470;SDS011;11908;50.806;4.424;2024-03-17T14:02:56;5.85;;;1.45;;
23470;SDS011;11908;50.806;4.424;2024-03-17T14:05:22;5.00;;;1.70;;
23470;SDS011;11908;50.806;4.424;2024-03-17T14:07:49;4.03;;;1.17;;
23470;SDS011;11908;50.806;4.424;2024-03-17T14:10:17;4.72;;;1.33;;
23470;SDS011;11908;50.806;4.424;2024-03-17T14:12:44;3.03;;;1.10;;
23470;SDS011;11908;50.806;4.424;2024-03-17T14:15:11;5.82;;;1.70;;
23470;SDS011;11908;50.806;4.424;2024-03-17T14:17:38;6.88;;;1.60;;
23470;SDS011;11908;50.806;4.424;2024-03-17T14:20:05;3.80;;;1.38;;
23470;SDS011;11908;50.806;4.424;2024-03-17T14:22:36;8.05;;;1.98;;
23470;SDS011;11908;50.806;4.424;2024-03-17T14:25:03;5.57;;;1.20;;
23470;SDS011;11908;50.806;4.424;2024-03-17T14:27:32;6.10;;;1.20;;
23470;SDS011;11908;50.806;4.424;2024-03-17T14:29:59;5.30;;;1.70;;
23470;SDS011;11908;50.806;4.424;2024-03-17T14:32:25;4.60;;;1.55;;
23470;SDS011;11908;50.806;4.424;2024-03-17T14:34:51;7.05;;;1.60;;
23470;SDS011;11908;50.806;4.424;2024-03-17T14:37:16;5.63;;;1.70;;
23470;SDS011;11908;50.806;4.424;2024-03-17T14:39:42;7.82;;;1.80;;
23470;SDS011;11908;50.806;4.424;2024-03-17T14:42:09;6.65;;;1.85;;
23470;SDS011;11908;50.806;4.424;2024-03-17T14:44:35;4.15;;;1.30;;
23470;SDS011;11908;50.806;4.424;2024-03-17T14:47:01;4.10;;;1.23;;
23470;SDS011;11908;50.806;4.424;2024-03-17T14:49:29;6.53;;;2.10;;
23470;SDS011;11908;50.806;4.424;2024-03-17T14:51:55;4.50;;;1.45;;
23470;SDS011;11908;50.806;4.424;2024-03-17T14:54:22;7.10;;;1.60;;
23470;SDS011;11908;50.806;4.424;2024-03-17T14:56:47;2.63;;;0.98;;
23470;SDS011;11908;50.806;4.424;2024-03-17T14:59:13;4.80;;;1.33;;
23470;SDS011;11908;50.806;4.424;2024-03-17T15:01:43;8.70;;;1.60;;
23470;SDS011;11908;50.806;4.424;2024-03-17T15:04:10;5.10;;;1.65;;
23470;SDS011;11908;50.806;4.424;2024-03-17T15:06:35;4.25;;;1.02;;